Terminal Aerodrome Forecast
Issued by NWS

Home | Current Version | Previous Version | Text Only | Print | Product List | Glossary On
Versions: 1 2 3 4 5 6 7 8 9 10 11 12 13 14 15 16 17 18 19 20
000
FTUS41 KGYX 010900 AAB
TAFAUG
TAF AMD
KAUG 010924Z 0109/0206 00000KT 3SM BR VV002
     FM011200 17004KT P6SM SCT250
     FM011800 18009KT P6SM SCT045 SCT080
     FM020000 VRB03KT P6SM SCT120 BKN200=

USA.gov is the U.S. government's official web portal to all federal, state and local government web resources and services.